Terminal Aerodrome Forecast
Issued by NWS

Current Version | Previous Version | Graphics & Text | Print | Product List | Glossary On
Versions: 1 2 3 4 5 6 7 8 9 10 11 12 13 14 15 16 17 18 19 20 21 22 23 24 25 26 27
000
FTUS41 KRLX 271400 AAA
TAFCKB
TAF AMD
KCKB 271459Z 2715/2812 30008KT P6SM -SN OVC025
      TEMPO 2715/2717 4SM -SN BKN015
     FM271800 29007KT P6SM OVC025
     FM280700 29006KT P6SM SKC=

USA.gov is the U.S. government's official web portal to all federal, state and local government web resources and services.